createdAt,value
2023-11-09T00:02:21.271Z,9.15
2023-11-09T00:04:52.901Z,6.58
2023-11-09T00:07:24.326Z,4.17
2023-11-09T00:09:54.181Z,4.03
2023-11-09T00:12:24.519Z,15.03
2023-11-09T00:14:54.362Z,11.20
2023-11-09T00:17:26.849Z,7.90
2023-11-09T00:22:26.380Z,6.83
2023-11-09T00:24:56.236Z,5.95
2023-11-09T00:27:26.040Z,6.20
2023-11-09T00:29:55.806Z,6.47
2023-11-09T00:32:26.994Z,5.45
2023-11-09T00:34:57.381Z,7.85
2023-11-09T00:37:29.250Z,8.10
2023-11-09T00:40:01.528Z,14.43
2023-11-09T00:42:31.553Z,8.95
2023-11-09T00:45:01.277Z,7.92
2023-11-09T00:47:31.020Z,9.68
2023-11-09T00:50:01.488Z,11.20
2023-11-09T00:52:32.025Z,5.53
2023-11-09T00:55:02.482Z,10.32
2023-11-09T00:57:34.043Z,6.28
2023-11-09T01:00:06.350Z,6.83
2023-11-09T01:02:37.717Z,11.30
2023-11-09T01:05:09.479Z,6.72
2023-11-09T01:07:39.420Z,10.90
2023-11-09T01:10:09.790Z,8.85
2023-11-09T01:12:39.579Z,9.93
2023-11-09T01:15:09.716Z,4.87
2023-11-09T01:17:40.505Z,7.20
2023-11-09T01:20:11.127Z,6.60
2023-11-09T01:22:41.994Z,11.28
2023-11-09T01:25:11.856Z,8.48
2023-11-09T01:27:41.542Z,9.55
2023-11-09T01:30:11.524Z,14.10
2023-11-09T01:32:43.076Z,8.33
2023-11-09T01:35:12.779Z,8.45
2023-11-09T01:37:42.614Z,10.98
2023-11-09T01:40:13.757Z,6.45
2023-11-09T01:42:46.512Z,14.25
2023-11-09T01:45:16.698Z,9.60
2023-11-09T01:47:47.126Z,10.43
2023-11-09T01:50:19.114Z,7.05
2023-11-09T01:52:50.356Z,8.95
2023-11-09T01:55:23.019Z,11.00
2023-11-09T01:58:29.112Z,10.88
2023-11-09T02:01:01.061Z,8.95
2023-11-09T02:03:33.369Z,10.15
2023-11-09T02:08:32.847Z,6.25
2023-11-09T02:11:02.827Z,6.25
2023-11-09T02:13:34.055Z,6.60
2023-11-09T02:16:06.226Z,8.83
2023-11-09T02:18:36.631Z,5.42
2023-11-09T02:21:06.931Z,10.88
2023-11-09T02:23:37.601Z,5.60
2023-11-09T02:26:09.460Z,5.95
2023-11-09T02:28:39.249Z,8.90
2023-11-09T02:31:08.812Z,8.45
2023-11-09T02:33:38.537Z,11.28
2023-11-09T02:36:08.711Z,8.53
2023-11-09T02:38:38.395Z,9.43
2023-11-09T02:41:09.432Z,12.93
2023-11-09T02:43:42.225Z,11.08
2023-11-09T02:46:14.486Z,13.17
2023-11-09T02:48:44.082Z,9.87
2023-11-09T02:51:14.078Z,8.48
2023-11-09T02:53:44.494Z,9.60
2023-11-09T02:56:14.090Z,11.93
2023-11-09T02:58:45.534Z,10.60
2023-11-09T03:01:15.307Z,9.60
2023-11-09T03:03:54.485Z,6.70
2023-11-09T03:06:24.379Z,9.00
2023-11-09T03:08:53.910Z,4.58
2023-11-09T03:11:24.190Z,12.05
2023-11-09T03:13:53.889Z,12.55
2023-11-09T03:16:24.614Z,11.38
2023-11-09T03:18:55.818Z,6.00
2023-11-09T03:21:25.442Z,9.50
2023-11-09T03:25:47.276Z,8.43
2023-11-09T03:28:16.948Z,12.05
2023-11-09T03:30:46.575Z,6.80
2023-11-09T03:33:16.266Z,8.98
2023-11-09T03:35:45.889Z,9.03
2023-11-09T03:38:15.493Z,5.80
2023-11-09T03:40:45.227Z,10.55
2023-11-09T03:43:14.948Z,5.55
2023-11-09T03:45:44.468Z,8.05
2023-11-09T03:48:16.181Z,8.63
2023-11-09T03:50:46.953Z,9.60
2023-11-09T03:53:16.579Z,7.75
2023-11-09T03:55:46.175Z,8.65
2023-11-09T03:58:15.733Z,7.45
2023-11-09T04:00:45.431Z,9.78
2023-11-09T04:03:15.474Z,8.03
2023-11-09T04:05:45.160Z,11.90
2023-11-09T04:08:14.743Z,11.40
2023-11-09T04:10:44.279Z,6.05
2023-11-09T04:13:14.601Z,9.25
2023-11-09T04:15:44.252Z,11.18
2023-11-09T04:18:13.879Z,10.38
2023-11-09T04:20:43.405Z,10.50
2023-11-09T04:23:12.936Z,9.85
2023-11-09T04:25:42.469Z,9.38
2023-11-09T04:28:12.182Z,8.55
2023-11-09T04:30:41.770Z,9.83
2023-11-09T04:33:11.440Z,7.67
2023-11-09T04:35:43.324Z,9.33
2023-11-09T04:38:14.575Z,7.97
2023-11-09T04:40:45.817Z,6.10
2023-11-09T04:43:16.903Z,10.40
2023-11-09T04:45:46.929Z,10.10
2023-11-09T04:48:18.145Z,6.80
2023-11-09T04:50:56.001Z,7.50
2023-11-09T04:53:36.154Z,7.78
2023-11-09T04:56:06.082Z,12.47
2023-11-09T04:58:38.115Z,10.10
2023-11-09T05:01:26.027Z,11.63
2023-11-09T05:04:13.677Z,10.43
2023-11-09T05:06:53.575Z,8.53
2023-11-09T05:09:29.089Z,11.25
2023-11-09T05:12:00.965Z,9.85
2023-11-09T05:14:30.528Z,7.87
2023-11-09T05:17:00.084Z,8.03
2023-11-09T05:19:29.623Z,12.07
2023-11-09T05:22:00.428Z,9.43
2023-11-09T05:24:30.000Z,11.63
2023-11-09T05:26:59.593Z,10.53
2023-11-09T05:29:30.061Z,10.03
2023-11-09T05:32:01.117Z,8.60
2023-11-09T05:34:30.770Z,13.58
2023-11-09T05:37:00.371Z,15.28
2023-11-09T05:39:30.109Z,10.28
2023-11-09T05:42:00.656Z,9.28
2023-11-09T05:44:31.130Z,14.35
2023-11-09T05:47:00.799Z,13.35
2023-11-09T05:49:30.523Z,17.30
2023-11-09T05:52:00.228Z,14.50
2023-11-09T05:54:31.297Z,20.55
2023-11-09T05:57:01.398Z,12.07
2023-11-09T05:59:30.993Z,16.80
2023-11-09T06:02:02.929Z,16.52
2023-11-09T06:04:31.793Z,12.82
2023-11-09T06:07:02.709Z,18.35
2023-11-09T06:09:32.338Z,18.95
2023-11-09T06:12:02.802Z,16.23
2023-11-09T06:14:32.452Z,9.95
2023-11-09T06:17:03.534Z,14.78
2023-11-09T06:19:35.167Z,11.43
2023-11-09T06:22:07.701Z,11.10
2023-11-09T06:24:39.114Z,17.45
2023-11-09T06:27:09.811Z,11.53
2023-11-09T06:29:39.731Z,10.87
2023-11-09T06:32:09.500Z,11.60
2023-11-09T06:34:39.307Z,11.00
2023-11-09T06:37:09.685Z,10.55
2023-11-09T06:39:40.933Z,11.88
2023-11-09T06:42:12.090Z,15.63
2023-11-09T06:44:41.653Z,12.23
2023-11-09T06:47:11.987Z,13.83
2023-11-09T06:49:41.615Z,9.15
2023-11-09T06:52:11.214Z,10.88
2023-11-09T06:54:42.851Z,8.55
2023-11-09T06:57:12.918Z,13.32
2023-11-09T06:59:43.647Z,8.13
2023-11-09T07:02:13.882Z,10.25
2023-11-09T07:04:43.588Z,11.05
2023-11-09T07:07:14.805Z,11.50
2023-11-09T07:09:44.640Z,8.95
2023-11-09T07:12:14.422Z,8.08
2023-11-09T07:14:43.975Z,9.93
2023-11-09T07:17:15.731Z,6.28
2023-11-09T07:19:47.132Z,9.07
2023-11-09T07:22:23.261Z,11.97
2023-11-09T07:25:05.233Z,8.33
2023-11-09T07:27:26.821Z,8.90
2023-11-09T07:29:56.845Z,6.85
2023-11-09T07:32:28.245Z,7.92
2023-11-09T07:34:59.078Z,7.60
2023-11-09T07:37:28.831Z,9.90
2023-11-09T07:39:58.798Z,7.95
2023-11-09T07:42:28.936Z,10.05
2023-11-09T07:44:58.455Z,6.10
2023-11-09T07:47:28.859Z,16.67
2023-11-09T07:49:58.502Z,16.30
2023-11-09T07:52:28.282Z,9.75
2023-11-09T07:54:57.927Z,8.53
2023-11-09T07:57:27.448Z,9.33
2023-11-09T08:00:04.826Z,9.55
2023-11-09T08:02:28.160Z,9.90
2023-11-09T08:04:58.584Z,6.97
2023-11-09T08:07:28.209Z,8.60
2023-11-09T08:09:57.842Z,8.38
2023-11-09T08:12:27.783Z,12.53
2023-11-09T08:14:58.066Z,10.93
2023-11-09T08:17:31.283Z,15.72
2023-11-09T08:20:00.393Z,15.03
2023-11-09T08:22:30.222Z,10.53
2023-11-09T08:25:00.432Z,12.00
2023-11-09T08:27:31.706Z,9.78
2023-11-09T08:30:01.304Z,9.23
2023-11-09T08:32:31.494Z,10.68
2023-11-09T08:35:01.761Z,12.50
2023-11-09T08:37:31.361Z,6.10
2023-11-09T08:40:00.954Z,8.28
2023-11-09T08:42:35.122Z,3.92
2023-11-09T08:45:06.913Z,5.45
2023-11-09T08:47:38.825Z,7.10
2023-11-09T08:50:14.358Z,6.67
2023-11-09T08:52:45.184Z,4.08
2023-11-09T08:55:14.831Z,5.35
2023-11-09T08:57:44.377Z,7.65
2023-11-09T09:00:14.667Z,6.12
2023-11-09T09:02:52.976Z,12.13
2023-11-09T09:05:25.556Z,6.42
2023-11-09T09:08:01.281Z,6.83
2023-11-09T09:10:30.736Z,6.12
2023-11-09T09:13:03.927Z,7.15
2023-11-09T09:15:34.248Z,7.70
2023-11-09T09:18:04.084Z,8.50
2023-11-09T09:20:33.766Z,7.97
2023-11-09T09:23:05.217Z,6.90
2023-11-09T09:25:34.839Z,8.03
2023-11-09T09:28:09.418Z,4.58
2023-11-09T09:30:39.793Z,5.78
2023-11-09T09:33:09.588Z,5.67
2023-11-09T09:35:45.320Z,5.33
2023-11-09T09:38:12.117Z,7.92
2023-11-09T09:40:48.192Z,3.87
2023-11-09T09:45:45.259Z,4.08
2023-11-09T09:48:15.421Z,5.83
2023-11-09T09:50:45.888Z,8.20
2023-11-09T09:53:17.593Z,9.03
2023-11-09T09:55:48.259Z,4.87
2023-11-09T09:58:23.116Z,5.12
2023-11-09T10:00:55.748Z,5.85
2023-11-09T10:03:27.069Z,6.22
2023-11-09T10:05:57.252Z,4.77
2023-11-09T10:08:46.115Z,4.56
2023-11-09T10:11:16.789Z,4.20
2023-11-09T10:13:50.904Z,8.20
2023-11-09T10:16:22.451Z,3.22
2023-11-09T10:18:53.634Z,2.50
2023-11-09T10:21:23.297Z,5.65
2023-11-09T10:23:56.413Z,3.58
2023-11-09T10:28:59.044Z,6.53
2023-11-09T10:31:33.126Z,5.83
2023-11-09T10:34:03.562Z,3.20
2023-11-09T10:36:33.976Z,3.90
2023-11-09T10:39:03.578Z,2.37
2023-11-09T10:41:54.096Z,3.60
2023-11-09T10:44:06.497Z,4.67
2023-11-09T10:46:38.928Z,1.92
2023-11-09T10:49:11.995Z,1.30
2023-11-09T10:51:45.592Z,2.58
2023-11-09T10:54:17.775Z,6.35
2023-11-09T10:56:48.604Z,1.87
2023-11-09T10:59:18.201Z,3.72
2023-11-09T11:01:49.484Z,3.47
2023-11-09T11:04:20.404Z,2.75
2023-11-09T11:06:53.312Z,6.92
2023-11-09T11:09:28.709Z,7.28
2023-11-09T11:12:00.856Z,5.47
2023-11-09T11:14:33.400Z,6.12
2023-11-09T11:17:14.765Z,3.22
2023-11-09T11:20:21.693Z,5.35
2023-11-09T11:23:14.102Z,2.20
2023-11-09T11:25:47.474Z,2.22
2023-11-09T11:28:19.023Z,4.45
2023-11-09T11:30:49.158Z,2.22
2023-11-09T11:33:21.358Z,2.55
2023-11-09T11:36:01.585Z,2.70
2023-11-09T11:38:34.585Z,3.10
2023-11-09T11:41:13.061Z,2.67
2023-11-09T11:43:44.088Z,4.80
2023-11-09T11:46:16.233Z,3.47
2023-11-09T11:48:50.800Z,2.47
2023-11-09T11:51:20.643Z,5.53
2023-11-09T11:53:54.033Z,4.30
2023-11-09T11:56:29.706Z,3.25
2023-11-09T11:59:00.935Z,4.60
2023-11-09T12:01:34.778Z,4.20
2023-11-09T12:04:08.251Z,3.70
2023-11-09T12:06:40.087Z,4.35
2023-11-09T12:09:11.771Z,2.83
2023-11-09T12:11:47.631Z,3.60
2023-11-09T12:14:21.093Z,5.08
2023-11-09T12:16:52.309Z,2.98
2023-11-09T12:19:23.563Z,6.87
2023-11-09T12:21:53.212Z,9.28
2023-11-09T12:24:24.857Z,3.17
2023-11-09T12:27:06.459Z,5.85
2023-11-09T12:29:40.084Z,4.53
2023-11-09T12:32:12.070Z,8.05
2023-11-09T12:34:45.001Z,4.60
2023-11-09T12:37:16.132Z,5.87
2023-11-09T12:39:46.942Z,7.75
2023-11-09T12:42:19.582Z,5.00
2023-11-09T12:44:49.115Z,10.08
2023-11-09T12:47:21.007Z,8.83
2023-11-09T12:49:53.043Z,5.28
2023-11-09T12:52:28.190Z,4.83
2023-11-09T12:55:00.788Z,8.45
2023-11-09T12:57:32.069Z,5.28
2023-11-09T13:00:03.289Z,4.58
2023-11-09T13:02:37.892Z,10.10
2023-11-09T13:05:09.359Z,6.25
2023-11-09T13:07:38.909Z,6.15
2023-11-09T13:10:21.413Z,4.90
2023-11-09T13:12:56.833Z,7.10
2023-11-09T13:15:38.142Z,6.25
2023-11-09T13:18:09.811Z,3.58
2023-11-09T13:20:40.530Z,4.90
2023-11-09T13:23:13.418Z,4.20
2023-11-09T13:28:19.151Z,3.73
2023-11-09T13:30:53.720Z,6.15
2023-11-09T13:33:38.877Z,7.37
2023-11-09T13:36:12.387Z,7.60
2023-11-09T13:41:20.058Z,3.33
2023-11-09T13:44:03.898Z,4.22
2023-11-09T13:46:35.212Z,6.33
2023-11-09T13:49:18.689Z,6.12
2023-11-09T13:52:00.281Z,4.78
2023-11-09T13:54:35.820Z,4.78
2023-11-09T13:57:14.157Z,5.20
2023-11-09T13:59:47.007Z,3.90
2023-11-09T14:02:20.825Z,7.58
2023-11-09T14:05:04.099Z,7.50
2023-11-09T14:07:35.091Z,4.33
2023-11-09T14:10:09.120Z,7.25
2023-11-09T14:12:38.905Z,5.90
2023-11-09T14:15:26.057Z,6.70
2023-11-09T14:18:21.056Z,6.60
2023-11-09T14:20:54.443Z,5.97
2023-11-09T14:23:25.941Z,5.80
2023-11-09T14:25:56.743Z,3.65
2023-11-09T14:28:27.951Z,9.85
2023-11-09T14:30:58.573Z,5.97
2023-11-09T14:33:30.160Z,8.65
2023-11-09T14:36:00.059Z,5.87
2023-11-09T14:38:29.868Z,9.05
2023-11-09T14:41:00.303Z,9.53
2023-11-09T14:43:31.205Z,3.40
2023-11-09T14:46:02.506Z,2.98
2023-11-09T14:48:32.355Z,5.22
2023-11-09T14:51:01.876Z,4.33
2023-11-09T14:53:36.849Z,8.45
2023-11-09T14:56:04.463Z,10.07
2023-11-09T14:58:35.810Z,12.45
2023-11-09T15:01:06.331Z,6.90
2023-11-09T15:03:36.603Z,5.25
2023-11-09T15:06:08.468Z,7.25
2023-11-09T15:08:38.897Z,6.87
2023-11-09T15:11:11.389Z,12.20
2023-11-09T15:13:42.925Z,8.53
2023-11-09T15:16:15.705Z,8.25
2023-11-09T15:18:47.155Z,9.45
2023-11-09T15:21:18.133Z,4.92
2023-11-09T15:23:48.632Z,5.47
2023-11-09T15:26:20.024Z,6.95
2023-11-09T15:28:50.047Z,6.87
2023-11-09T15:31:22.538Z,9.15
2023-11-09T15:33:53.020Z,6.22
2023-11-09T15:36:23.334Z,8.95
2023-11-09T15:38:52.865Z,7.97
2023-11-09T15:41:24.223Z,8.35
2023-11-09T15:43:56.050Z,5.75
2023-11-09T15:46:26.006Z,6.40
2023-11-09T15:48:56.637Z,7.17
2023-11-09T15:51:32.487Z,4.58
2023-11-09T15:54:02.477Z,11.88
2023-11-09T15:56:32.025Z,13.08
2023-11-09T15:59:01.673Z,7.58
2023-11-09T16:01:32.190Z,7.12
2023-11-09T16:04:02.536Z,6.72
2023-11-09T16:06:34.302Z,5.35
2023-11-09T16:09:04.675Z,4.03
2023-11-09T16:11:34.841Z,46.13
2023-11-09T16:14:04.394Z,14.35
2023-11-09T16:16:34.197Z,9.90
2023-11-09T16:19:07.710Z,5.05
2023-11-09T16:24:07.737Z,12.65
2023-11-09T16:26:38.916Z,21.63
2023-11-09T16:29:09.399Z,12.68
2023-11-09T16:31:39.086Z,17.80
2023-11-09T16:34:08.662Z,29.77
2023-11-09T16:36:38.270Z,15.15
2023-11-09T16:39:09.506Z,10.45
2023-11-09T16:41:39.133Z,12.50
2023-11-09T16:44:08.683Z,6.00
2023-11-09T16:46:38.365Z,16.27
2023-11-09T16:49:07.993Z,11.93
2023-11-09T16:51:37.521Z,10.03
2023-11-09T16:54:07.226Z,14.00
2023-11-09T16:56:36.917Z,7.25
2023-11-09T16:59:06.591Z,7.55
2023-11-09T17:01:37.152Z,6.87
2023-11-09T17:04:07.305Z,7.00
2023-11-09T17:06:36.934Z,32.00
2023-11-09T17:09:07.901Z,29.18
2023-11-09T17:11:39.136Z,23.23
2023-11-09T17:14:08.791Z,7.08
2023-11-09T17:16:38.504Z,8.43
2023-11-09T17:19:17.351Z,6.15
2023-11-09T17:21:47.760Z,5.40
2023-11-09T17:24:17.871Z,6.05
2023-11-09T17:26:48.055Z,9.97
2023-11-09T17:29:17.937Z,21.10
2023-11-09T17:31:49.160Z,22.20
2023-11-09T17:34:20.376Z,34.83
2023-11-09T17:36:50.476Z,21.65
2023-11-09T17:39:22.116Z,9.53
2023-11-09T17:41:53.047Z,9.40
2023-11-09T17:44:22.653Z,15.20
2023-11-09T17:46:53.194Z,14.83
2023-11-09T17:49:22.872Z,12.90
2023-11-09T17:51:52.696Z,7.08
2023-11-09T17:54:22.404Z,14.98
2023-11-09T17:56:52.042Z,12.05
2023-11-09T17:59:21.636Z,7.40
2023-11-09T18:01:51.255Z,7.37
2023-11-09T18:04:21.954Z,11.30
2023-11-09T18:06:51.873Z,15.05
2023-11-09T18:09:21.484Z,12.93
2023-11-09T18:11:53.312Z,15.15
2023-11-09T18:14:22.514Z,11.78
2023-11-09T18:16:52.928Z,13.85
2023-11-09T18:19:22.908Z,12.37
2023-11-09T18:21:54.205Z,14.40
2023-11-09T18:24:24.262Z,17.95
2023-11-09T18:26:53.875Z,16.57
2023-11-09T18:29:25.089Z,19.67
2023-11-09T18:31:54.711Z,34.38
2023-11-09T18:34:24.303Z,22.67
2023-11-09T18:36:54.405Z,19.92
2023-11-09T18:39:24.152Z,12.53
2023-11-09T18:41:53.675Z,11.43
2023-11-09T18:44:23.399Z,16.67
2023-11-09T18:46:53.667Z,15.35
2023-11-09T18:51:54.453Z,9.45
2023-11-09T18:54:24.036Z,10.32
2023-11-09T18:56:53.560Z,13.65
2023-11-09T18:59:23.145Z,8.05
2023-11-09T19:01:52.795Z,11.40
2023-11-09T19:06:53.993Z,17.27
2023-11-09T19:09:25.151Z,19.55
2023-11-09T19:11:55.248Z,16.45
2023-11-09T19:14:25.923Z,12.63
2023-11-09T19:16:56.397Z,9.50
2023-11-09T19:19:26.042Z,13.08
2023-11-09T19:24:29.942Z,11.20
2023-11-09T19:27:02.060Z,13.13
2023-11-09T19:29:31.730Z,10.23
2023-11-09T19:32:02.944Z,11.40
2023-11-09T19:34:33.932Z,13.35
2023-11-09T19:37:03.525Z,9.60
2023-11-09T19:39:33.136Z,8.85
2023-11-09T19:42:03.338Z,13.68
2023-11-09T19:44:33.212Z,11.25
2023-11-09T19:47:05.835Z,10.13
2023-11-09T19:49:33.945Z,11.30
2023-11-09T19:52:03.546Z,12.68
2023-11-09T19:54:33.093Z,8.43
2023-11-09T19:57:02.742Z,12.68
2023-11-09T19:59:32.380Z,11.50
2023-11-09T20:02:02.002Z,17.55
2023-11-09T20:04:31.590Z,10.15
2023-11-09T20:07:02.833Z,14.10
2023-11-09T20:09:32.360Z,12.00
2023-11-09T20:12:02.018Z,15.75
2023-11-09T20:14:31.625Z,13.15
2023-11-09T20:17:01.157Z,14.60
2023-11-09T20:19:32.321Z,16.10
2023-11-09T20:22:04.971Z,12.47
2023-11-09T20:24:35.115Z,11.97
2023-11-09T20:27:05.950Z,13.30
2023-11-09T20:29:36.250Z,17.43
2023-11-09T20:32:06.011Z,13.13
2023-11-09T20:34:35.567Z,13.48
2023-11-09T20:37:08.285Z,10.95
2023-11-09T20:39:40.553Z,13.00
2023-11-09T20:42:11.579Z,15.23
2023-11-09T20:44:42.018Z,11.22
2023-11-09T20:47:13.242Z,15.43
2023-11-09T20:49:42.770Z,19.67
2023-11-09T20:52:12.618Z,19.12
2023-11-09T20:54:42.166Z,16.48
2023-11-09T20:57:16.453Z,14.65
2023-11-09T20:59:46.591Z,18.15
2023-11-09T21:02:16.106Z,18.40
2023-11-09T21:04:45.753Z,15.95
2023-11-09T21:07:17.176Z,15.08
2023-11-09T21:09:46.832Z,16.07
2023-11-09T21:12:19.585Z,15.78
2023-11-09T21:14:48.699Z,17.60
2023-11-09T21:17:18.382Z,22.82
2023-11-09T21:19:48.010Z,23.05
2023-11-09T21:22:17.969Z,30.65
2023-11-09T21:24:47.671Z,12.40
2023-11-09T21:27:21.228Z,17.32
2023-11-09T21:29:51.575Z,12.80
2023-11-09T21:32:21.474Z,13.20
2023-11-09T21:34:51.290Z,11.83
2023-11-09T21:37:23.005Z,14.60
2023-11-09T21:39:53.051Z,18.20
2023-11-09T21:42:22.815Z,13.55
2023-11-09T21:44:52.685Z,14.63
2023-11-09T21:47:22.518Z,12.47
2023-11-09T21:49:53.860Z,17.65
2023-11-09T21:52:23.655Z,15.48
2023-11-09T21:54:53.631Z,15.32
2023-11-09T21:57:23.397Z,11.35
2023-11-09T21:59:54.278Z,13.83
2023-11-09T22:02:24.211Z,14.43
2023-11-09T22:04:53.932Z,12.30
2023-11-09T22:07:23.665Z,12.18
2023-11-09T22:09:53.328Z,13.72
2023-11-09T22:12:23.810Z,10.43
2023-11-09T22:14:54.665Z,11.93
2023-11-09T22:17:24.674Z,16.27
2023-11-09T22:19:54.414Z,10.80
2023-11-09T22:22:24.700Z,8.75
2023-11-09T22:24:54.629Z,7.05
2023-11-09T22:27:24.559Z,8.10
2023-11-09T22:29:54.377Z,10.72
2023-11-09T22:32:25.015Z,14.30
2023-11-09T22:34:55.274Z,11.43
2023-11-09T22:37:25.023Z,15.83
2023-11-09T22:39:54.607Z,18.32
2023-11-09T22:42:24.324Z,21.30
2023-11-09T22:44:55.831Z,13.55
2023-11-09T22:47:25.526Z,19.52
2023-11-09T22:49:55.229Z,10.25
2023-11-09T22:52:25.010Z,11.93
2023-11-09T22:54:54.694Z,9.98
2023-11-09T22:57:25.492Z,12.20
2023-11-09T22:59:55.267Z,8.45
2023-11-09T23:02:24.899Z,9.00
2023-11-09T23:04:54.748Z,9.85
2023-11-09T23:07:24.455Z,10.50
2023-11-09T23:09:54.200Z,12.68
2023-11-09T23:12:23.970Z,9.80
2023-11-09T23:14:53.841Z,11.20
2023-11-09T23:17:23.839Z,8.50
2023-11-09T23:20:01.032Z,12.23
2023-11-09T23:22:25.023Z,13.15
2023-11-09T23:24:55.011Z,14.50
2023-11-09T23:27:25.193Z,10.15
2023-11-09T23:29:54.886Z,10.23
2023-11-09T23:32:25.626Z,12.95
2023-11-09T23:34:55.495Z,10.23
2023-11-09T23:37:25.356Z,7.08
2023-11-09T23:39:55.670Z,10.70
2023-11-09T23:42:25.520Z,11.65
2023-11-09T23:44:55.750Z,7.10
2023-11-09T23:47:25.566Z,8.88
2023-11-09T23:49:56.355Z,8.48
2023-11-09T23:52:26.033Z,9.20
2023-11-09T23:54:55.782Z,8.68
2023-11-09T23:57:25.643Z,6.80
2023-11-09T23:59:55.706Z,9.15
